Time;durP1;ratioP1;P1;durP2;ratioP2;P2;SDS_P1;SDS_P2;PMS_P1;PMS_P2;Temp;Humidity;BMP_temperature;BMP_pressure;BME280_temperature;BME280_humidity;BME280_pressure;Samples;Min_cycle;Max_cycle;Signal;HPM_P1;HPM_P2
2024/01/08 00:02:42;;;;;;;714.20;650.45;;;;;;;;;;10417010;28;20017;-73
2024/01/08 00:07:42;;;;;;;680.88;617.33;;;;;;;;;;10400015;28;20095;-73
2024/01/08 00:12:42;;;;;;;679.28;612.63;;;;;;;;;;10417032;28;20018;-73
2024/01/08 00:17:43;;;;;;;663.00;597.73;;;;;;;;;;10417445;28;20029;-73
2024/01/08 00:22:43;;;;;;;650.97;586.30;;;;;;;;;;10416644;28;20168;-73
2024/01/08 00:27:43;;;;;;;654.22;588.88;;;;;;;;;;10398555;28;20199;-73
2024/01/08 00:32:44;;;;;;;699.15;631.28;;;;;;;;;;10416049;28;20064;-73
2024/01/08 00:37:44;;;;;;;661.95;592.35;;;;;;;;;;10421797;28;20044;-73
2024/01/08 00:42:44;;;;;;;658.22;587.80;;;;;;;;;;10406468;28;20040;-73
2024/01/08 00:47:45;;;;;;;688.97;617.78;;;;;;;;;;10408063;28;20040;-73
2024/01/08 00:52:45;;;;;;;664.70;593.67;;;;;;;;;;10425599;28;20025;-73
2024/01/08 00:57:46;;;;;;;654.40;577.70;;;;;;;;;;10425283;28;20246;-74
2024/01/08 01:02:46;;;;;;;660.50;588.63;;;;;;;;;;10423701;28;20311;-74
2024/01/08 01:07:46;;;;;;;643.58;575.25;;;;;;;;;;10423589;28;20026;-73
2024/01/08 01:12:46;;;;;;;671.92;606.28;;;;;;;;;;10423329;28;20055;-73
2024/01/08 01:17:48;;;;;;;661.78;594.05;;;;;;;;;;10422411;28;20021;-73
2024/01/08 01:22:48;;;;;;;670.80;604.08;;;;;;;;;;10423279;28;20390;-73
2024/01/08 01:27:49;;;;;;;676.05;611.10;;;;;;;;;;10422761;28;20056;-73
2024/01/08 01:32:49;;;;;;;711.08;645.75;;;;;;;;;;10422554;28;20021;-72
2024/01/08 01:37:49;;;;;;;676.25;609.05;;;;;;;;;;10422527;28;20026;-74
2024/01/08 01:42:54;;;;;;;642.30;574.10;;;;;;;;;;10422600;28;20025;-73
2024/01/08 01:47:55;;;;;;;651.17;583.85;;;;;;;;;;10421401;28;20033;-73
2024/01/08 01:52:55;;;;;;;642.00;573.97;;;;;;;;;;10404214;28;20034;-73
2024/01/08 01:57:55;;;;;;;656.45;589.00;;;;;;;;;;10420566;28;20124;-74
2024/01/08 02:02:55;;;;;;;678.67;609.67;;;;;;;;;;10392912;28;20071;-73
2024/01/08 02:07:56;;;;;;;688.40;617.85;;;;;;;;;;10413835;28;20029;-73
2024/01/08 02:12:58;;;;;;;682.97;612.15;;;;;;;;;;10421382;28;20030;-73
2024/01/08 02:17:58;;;;;;;690.35;615.35;;;;;;;;;;10420317;28;20026;-73
2024/01/08 02:22:58;;;;;;;679.42;606.35;;;;;;;;;;10420704;28;20329;-73
2024/01/08 02:27:58;;;;;;;673.17;599.70;;;;;;;;;;10420016;28;20316;-73
2024/01/08 02:32:59;;;;;;;652.90;582.38;;;;;;;;;;10419744;28;20311;-74
2024/01/08 02:37:59;;;;;;;667.33;569.42;;;;;;;;;;10419935;28;20021;-73
2024/01/08 02:42:59;;;;;;;659.85;583.95;;;;;;;;;;10419349;28;20034;-72
2024/01/08 02:47:59;;;;;;;676.10;567.75;;;;;;;;;;10418143;28;20231;-73
2024/01/08 02:52:59;;;;;;;653.03;552.97;;;;;;;;;;10419289;28;20075;-73
2024/01/08 02:58:04;;;;;;;666.92;597.72;;;;;;;;;;10418602;28;20049;-71
2024/01/08 03:03:04;;;;;;;658.05;587.58;;;;;;;;;;10422946;28;20017;-73
2024/01/08 03:08:04;;;;;;;629.03;559.67;;;;;;;;;;10417407;28;20024;-71
2024/01/08 03:13:04;;;;;;;668.17;564.43;;;;;;;;;;10419968;28;20048;-73
2024/01/08 03:18:05;;;;;;;700.55;626.35;;;;;;;;;;10416317;28;20243;-73
2024/01/08 03:23:05;;;;;;;745.72;668.38;;;;;;;;;;10415026;28;20207;-73
2024/01/08 03:28:05;;;;;;;697.75;622.00;;;;;;;;;;10416851;28;20060;-73
2024/01/08 03:33:06;;;;;;;683.13;524.45;;;;;;;;;;10414407;28;20017;-73
2024/01/08 03:38:06;;;;;;;696.75;553.70;;;;;;;;;;10416338;28;20080;-73
2024/01/08 03:43:06;;;;;;;678.17;568.72;;;;;;;;;;10399107;28;20181;-73
2024/01/08 03:48:06;;;;;;;677.60;550.90;;;;;;;;;;10413531;28;20067;-72
2024/01/08 03:53:07;;;;;;;679.37;604.63;;;;;;;;;;10398507;28;20393;-72
2024/01/08 03:58:07;;;;;;;677.33;583.05;;;;;;;;;;10412236;28;20338;-73
2024/01/08 04:03:07;;;;;;;658.53;577.10;;;;;;;;;;10410589;28;20017;-72
2024/01/08 04:08:07;;;;;;;680.65;610.05;;;;;;;;;;10416598;28;20077;-73
2024/01/08 04:13:08;;;;;;;658.83;587.78;;;;;;;;;;10421146;28;20203;-73
2024/01/08 04:18:08;;;;;;;676.80;606.72;;;;;;;;;;10424356;28;20041;-72
2024/01/08 04:23:08;;;;;;;658.47;587.15;;;;;;;;;;10424531;28;20005;-73
2024/01/08 04:28:08;;;;;;;703.03;628.63;;;;;;;;;;10401514;28;20116;-73
2024/01/08 04:33:08;;;;;;;690.20;614.38;;;;;;;;;;10423309;28;20025;-72
2024/01/08 04:38:09;;;;;;;692.60;589.75;;;;;;;;;;10420136;28;20084;-72
2024/01/08 04:43:09;;;;;;;708.83;567.83;;;;;;;;;;10430081;23;20980;-75
2024/01/08 04:48:09;;;;;;;715.40;614.17;;;;;;;;;;10361508;28;20026;-79
2024/01/08 04:53:10;;;;;;;730.72;572.05;;;;;;;;;;10365849;28;20096;-80
2024/01/08 04:58:11;;;;;;;747.60;585.80;;;;;;;;;;10349832;28;20389;-81
2024/01/08 05:03:12;;;;;;;701.10;572.13;;;;;;;;;;10348309;28;20057;-77
2024/01/08 05:08:12;;;;;;;715.70;582.78;;;;;;;;;;10359653;28;20126;-78
2024/01/08 05:13:12;;;;;;;704.60;602.85;;;;;;;;;;10346527;28;20288;-72
2024/01/08 05:18:18;;;;;;;700.00;557.95;;;;;;;;;;10358392;28;20042;-82
2024/01/08 05:23:25;;;;;;;731.53;570.40;;;;;;;;;;10335476;28;20053;-85
2024/01/08 05:28:28;;;;;;;698.30;504.17;;;;;;;;;;10368940;28;20037;-76
2024/01/08 05:33:28;;;;;;;712.50;482.67;;;;;;;;;;10344927;28;20017;-77
2024/01/08 05:38:28;;;;;;;729.17;495.33;;;;;;;;;;10344783;28;20021;-77
2024/01/08 05:43:29;;;;;;;733.47;542.13;;;;;;;;;;10334610;28;20584;-82
2024/01/08 05:48:29;;;;;;;722.40;542.47;;;;;;;;;;10306238;28;20022;-76
2024/01/08 05:53:29;;;;;;;738.03;572.07;;;;;;;;;;10327303;28;20018;-77
2024/01/08 05:58:32;;;;;;;748.72;541.30;;;;;;;;;;10326047;28;20026;-77
2024/01/08 06:03:32;;;;;;;772.25;577.42;;;;;;;;;;10313506;28;20026;-76
2024/01/08 06:08:32;;;;;;;773.83;523.08;;;;;;;;;;10306917;28;20034;-76
2024/01/08 06:13:32;;;;;;;781.05;543.63;;;;;;;;;;10296090;28;20026;-75
2024/01/08 06:18:33;;;;;;;783.63;557.72;;;;;;;;;;10306298;28;20034;-79
2024/01/08 06:23:33;;;;;;;778.80;525.50;;;;;;;;;;10306861;28;20019;-76
2024/01/08 06:28:33;;;;;;;783.83;539.92;;;;;;;;;;10292427;28;20512;-82
2024/01/08 06:33:34;;;;;;;771.10;506.75;;;;;;;;;;10306060;28;20023;-75
2024/01/08 06:38:34;;;;;;;777.60;521.40;;;;;;;;;;10281764;28;20419;-77
2024/01/08 06:43:35;;;;;;;770.37;484.27;;;;;;;;;;10312536;28;20057;-76
2024/01/08 06:48:35;;;;;;;786.75;557.72;;;;;;;;;;10322397;28;20102;-78
2024/01/08 06:53:35;;;;;;;780.97;515.80;;;;;;;;;;10306743;28;20084;-77
2024/01/08 06:58:35;;;;;;;779.67;517.17;;;;;;;;;;10304660;28;20390;-75
2024/01/08 07:03:35;;;;;;;780.15;519.53;;;;;;;;;;10304848;28;20068;-75
2024/01/08 07:08:36;;;;;;;780.83;526.97;;;;;;;;;;10304024;28;20113;-77
2024/01/08 07:13:37;;;;;;;783.92;537.10;;;;;;;;;;10304371;28;20022;-76
2024/01/08 07:18:37;;;;;;;786.35;544.85;;;;;;;;;;10283265;28;20054;-75
2024/01/08 07:23:38;;;;;;;776.72;515.60;;;;;;;;;;10309517;28;20101;-76
2024/01/08 07:28:43;;;;;;;778.33;521.65;;;;;;;;;;10306387;28;20432;-77
2024/01/08 07:33:43;;;;;;;786.20;557.50;;;;;;;;;;10287679;28;20085;-75
2024/01/08 07:38:43;;;;;;;771.28;498.30;;;;;;;;;;10311536;28;20018;-71
2024/01/08 07:43:43;;;;;;;793.67;563.55;;;;;;;;;;10332933;28;20050;-79
2024/01/08 07:48:44;;;;;;;790.80;568.65;;;;;;;;;;10304600;28;20485;-75
2024/01/08 07:53:44;;;;;;;800.35;588.38;;;;;;;;;;10279077;28;20536;-74
2024/01/08 07:58:45;;;;;;;781.22;515.17;;;;;;;;;;10306013;28;20543;-75
2024/01/08 08:03:47;;;;;;;792.47;581.45;;;;;;;;;;10297646;28;20174;-79
2024/01/08 08:08:47;;;;;;;783.17;538.45;;;;;;;;;;10294616;28;20401;-77
2024/01/08 08:13:47;;;;;;;780.90;533.83;;;;;;;;;;10322271;28;20022;-76
2024/01/08 08:18:48;;;;;;;778.22;519.25;;;;;;;;;;10301593;28;20033;-76
2024/01/08 08:23:50;;;;;;;777.03;506.85;;;;;;;;;;10306712;28;20014;-76
2024/01/08 08:28:52;;;;;;;779.42;527.13;;;;;;;;;;10319216;28;20406;-77
2024/01/08 08:33:53;;;;;;;772.58;484.08;;;;;;;;;;10289523;28;20026;-79
2024/01/08 08:38:53;;;;;;;701.55;510.42;;;;;;;;;;10301285;28;20015;-77
2024/01/08 08:43:54;;;;;;;695.13;477.08;;;;;;;;;;10301382;28;20066;-76
2024/01/08 08:48:54;;;;;;;708.67;490.58;;;;;;;;;;10318431;28;20492;-81
2024/01/08 08:53:55;;;;;;;721.42;510.58;;;;;;;;;;10295455;28;20015;-75
2024/01/08 08:58:55;;;;;;;617.10;438.20;;;;;;;;;;10309346;28;20042;-81
2024/01/08 09:03:57;;;;;;;465.42;416.77;;;;;;;;;;10297363;28;20042;-74
2024/01/08 09:09:01;;;;;;;464.27;419.55;;;;;;;;;;10286906;28;20424;-78
2024/01/08 09:14:01;;;;;;;469.52;420.25;;;;;;;;;;10302626;28;20120;-75
2024/01/08 09:19:03;;;;;;;567.40;436.67;;;;;;;;;;10316110;28;20053;-74
2024/01/08 09:24:05;;;;;;;567.53;423.10;;;;;;;;;;10302171;28;20022;-72
2024/01/08 09:29:06;;;;;;;574.10;401.38;;;;;;;;;;10336769;28;20416;-78
2024/01/08 09:34:06;;;;;;;551.95;393.48;;;;;;;;;;10319212;28;20485;-76
2024/01/08 09:39:11;;;;;;;548.28;425.13;;;;;;;;;;10311873;28;20041;-75
2024/01/08 09:44:13;;;;;;;545.70;427.73;;;;;;;;;;10336249;28;20046;-74
2024/01/08 09:49:14;;;;;;;556.40;390.98;;;;;;;;;;10354397;28;20045;-75
2024/01/08 09:54:20;;;;;;;548.83;398.58;;;;;;;;;;10353702;28;20045;-78
2024/01/08 09:59:20;;;;;;;548.30;385.55;;;;;;;;;;10369867;28;20104;-76
2024/01/08 10:04:21;;;;;;;555.25;380.00;;;;;;;;;;10347077;28;20202;-75
2024/01/08 10:09:21;;;;;;;555.25;394.02;;;;;;;;;;10369193;28;20137;-77
2024/01/08 10:14:25;;;;;;;560.50;419.25;;;;;;;;;;10345604;28;20034;-75
2024/01/08 10:19:27;;;;;;;555.33;432.63;;;;;;;;;;10363807;28;20412;-76
2024/01/08 10:24:27;;;;;;;562.33;434.95;;;;;;;;;;10363711;28;20026;-80
2024/01/08 10:29:29;;;;;;;570.25;427.73;;;;;;;;;;10364663;28;20075;-81
2024/01/08 10:34:30;;;;;;;597.72;434.42;;;;;;;;;;10345112;28;20026;-77
2024/01/08 10:39:31;;;;;;;594.20;435.17;;;;;;;;;;10345404;28;20134;-75
2024/01/08 10:44:31;;;;;;;566.85;401.45;;;;;;;;;;10347209;28;20053;-75
2024/01/08 10:49:33;;;;;;;565.65;445.63;;;;;;;;;;10304698;28;20026;-79
2024/01/08 10:54:40;;;;;;;571.53;428.58;;;;;;;;;;10291735;28;20116;-77
2024/01/08 10:59:41;;;;;;;573.35;440.13;;;;;;;;;;10304703;28;20396;-78
2024/01/08 11:04:42;;;;;;;578.97;458.75;;;;;;;;;;10311416;28;20093;-78
2024/01/08 11:09:44;;;;;;;591.83;446.98;;;;;;;;;;10290403;28;20063;-79
2024/01/08 11:14:45;;;;;;;607.42;445.10;;;;;;;;;;10315367;28;20113;-78
2024/01/08 11:19:47;;;;;;;597.40;388.30;;;;;;;;;;10300162;28;20356;-77
2024/01/08 11:24:49;;;;;;;600.35;389.85;;;;;;;;;;10307392;28;20018;-80
2024/01/08 11:30:02;;;;;;;619.70;426.25;;;;;;;;;;10306669;28;20026;-81
2024/01/08 11:35:05;;;;;;;615.00;402.15;;;;;;;;;;10280402;28;20054;-78
2024/01/08 11:40:24;;;;;;;621.67;444.15;;;;;;;;;;10296421;28;20030;-76
2024/01/08 11:45:24;;;;;;;621.20;429.40;;;;;;;;;;10300884;28;20058;-75
2024/01/08 11:50:33;;;;;;;605.63;413.02;;;;;;;;;;10288227;28;20037;-80
2024/01/08 11:55:34;;;;;;;626.05;413.38;;;;;;;;;;10303117;28;20026;-76
2024/01/08 12:00:34;;;;;;;637.50;443.35;;;;;;;;;;10304520;28;20408;-79
2024/01/08 12:05:38;;;;;;;659.95;440.33;;;;;;;;;;10303602;28;20027;-77
2024/01/08 12:10:38;;;;;;;665.80;431.38;;;;;;;;;;10304075;28;20469;-76
2024/01/08 12:15:40;;;;;;;684.20;428.85;;;;;;;;;;10321390;28;20093;-81
2024/01/08 12:20:41;;;;;;;703.75;458.63;;;;;;;;;;10318306;28;20044;-81
2024/01/08 12:25:41;;;;;;;661.00;426.48;;;;;;;;;;10304876;28;20026;-76
2024/01/08 12:30:42;;;;;;;683.35;426.80;;;;;;;;;;10317446;28;20481;-77
2024/01/08 12:35:42;;;;;;;715.30;442.98;;;;;;;;;;10308150;28;20026;-78
2024/01/08 12:40:42;;;;;;;704.00;407.17;;;;;;;;;;10310208;28;20030;-80
2024/01/08 12:45:46;;;;;;;610.57;424.63;;;;;;;;;;10316788;28;20398;-71
2024/01/08 12:50:50;;;;;;;553.03;412.27;;;;;;;;;;10317130;28;20074;-76
2024/01/08 12:55:51;;;;;;;544.20;394.92;;;;;;;;;;10297390;28;20031;-79
2024/01/08 13:01:10;;;;;;;536.17;371.08;;;;;;;;;;10310683;28;20034;-76
2024/01/08 13:06:11;;;;;;;545.95;423.35;;;;;;;;;;10294445;28;20045;-74
2024/01/08 13:11:11;;;;;;;520.53;372.17;;;;;;;;;;10309329;28;20030;-80
2024/01/08 13:16:11;;;;;;;520.55;381.52;;;;;;;;;;10309073;28;20023;-76
2024/01/08 13:21:12;;;;;;;524.20;382.65;;;;;;;;;;10310022;28;20029;-77
2024/01/08 13:26:12;;;;;;;563.70;378.80;;;;;;;;;;10308088;28;20627;-77
2024/01/08 13:31:12;;;;;;;573.13;421.15;;;;;;;;;;10302142;28;20033;-80
2024/01/08 13:36:13;;;;;;;536.75;356.58;;;;;;;;;;10304642;28;20108;-81
2024/01/08 13:41:13;;;;;;;539.13;372.38;;;;;;;;;;10308101;28;20086;-75
2024/01/08 13:46:13;;;;;;;531.13;358.10;;;;;;;;;;10332791;28;20136;-76
2024/01/08 13:51:14;;;;;;;501.35;386.77;;;;;;;;;;10343938;28;20149;-80
2024/01/08 13:56:15;;;;;;;533.15;384.63;;;;;;;;;;10359847;28;20044;-79
2024/01/08 14:01:15;;;;;;;526.22;371.73;;;;;;;;;;10363915;28;20395;-77
2024/01/08 14:06:16;;;;;;;535.35;379.60;;;;;;;;;;10346733;28;20485;-79
2024/01/08 14:11:16;;;;;;;539.53;406.50;;;;;;;;;;10364490;28;20021;-80
2024/01/08 14:16:16;;;;;;;537.88;400.20;;;;;;;;;;10345854;28;20404;-78
2024/01/08 14:21:16;;;;;;;551.00;403.85;;;;;;;;;;10363531;28;20022;-77
2024/01/08 14:26:17;;;;;;;554.28;400.48;;;;;;;;;;10361891;28;20041;-76
2024/01/08 14:31:17;;;;;;;550.15;390.20;;;;;;;;;;10336405;28;20022;-77
2024/01/08 14:36:19;;;;;;;544.88;379.10;;;;;;;;;;10317418;28;20021;-77
2024/01/08 14:41:19;;;;;;;544.58;381.15;;;;;;;;;;10336052;28;20017;-77
2024/01/08 14:46:21;;;;;;;542.97;370.98;;;;;;;;;;10366532;28;20049;-78
2024/01/08 14:51:21;;;;;;;516.95;341.75;;;;;;;;;;10339795;28;20168;-79
2024/01/08 14:56:21;;;;;;;554.25;380.08;;;;;;;;;;10344700;28;20544;-77
2024/01/08 15:01:21;;;;;;;537.42;361.77;;;;;;;;;;10360637;28;20022;-76
2024/01/08 15:06:22;;;;;;;548.15;383.55;;;;;;;;;;10329908;28;20429;-78
2024/01/08 15:11:22;;;;;;;536.33;385.47;;;;;;;;;;10343589;28;20527;-75
2024/01/08 15:16:22;;;;;;;523.55;371.52;;;;;;;;;;10343672;28;20034;-76
2024/01/08 15:21:23;;;;;;;538.85;399.40;;;;;;;;;;10359921;28;20030;-78
2024/01/08 15:26:23;;;;;;;530.33;364.75;;;;;;;;;;10360603;28;20032;-77
2024/01/08 15:31:23;;;;;;;531.88;352.50;;;;;;;;;;10342172;28;20450;-75
2024/01/08 15:36:24;;;;;;;538.13;360.83;;;;;;;;;;10330235;28;20017;-74
2024/01/08 15:41:24;;;;;;;536.20;354.88;;;;;;;;;;10343150;28;20030;-77
2024/01/08 15:46:26;;;;;;;540.10;384.48;;;;;;;;;;10331088;28;20058;-76
2024/01/08 15:51:27;;;;;;;525.53;342.98;;;;;;;;;;10364413;28;20022;-74
2024/01/08 15:56:50;;;;;;;531.40;379.23;;;;;;;;;;10338900;28;20362;-80
2024/01/08 16:01:51;;;;;;;556.88;411.65;;;;;;;;;;10352235;28;20029;-78
2024/01/08 16:06:51;;;;;;;548.00;399.35;;;;;;;;;;10330641;28;20026;-75
2024/01/08 16:11:51;;;;;;;547.60;394.67;;;;;;;;;;10357462;28;20473;-78
2024/01/08 16:16:51;;;;;;;562.83;420.95;;;;;;;;;;10353314;28;20594;-73
2024/01/08 16:21:52;;;;;;;566.97;423.00;;;;;;;;;;10356574;28;20036;-83
2024/01/08 16:26:52;;;;;;;554.88;363.05;;;;;;;;;;10357198;28;20028;-77
2024/01/08 16:31:52;;;;;;;558.88;400.45;;;;;;;;;;10355592;28;20025;-76
2024/01/08 16:36:52;;;;;;;574.47;399.60;;;;;;;;;;10357826;28;20079;-79
2024/01/08 16:41:53;;;;;;;564.38;419.02;;;;;;;;;;10374928;28;20416;-85
2024/01/08 16:46:53;;;;;;;556.92;390.98;;;;;;;;;;10343666;28;20049;-78
2024/01/08 16:51:54;;;;;;;555.80;411.25;;;;;;;;;;10316589;28;20435;-82
2024/01/08 16:56:55;;;;;;;555.58;371.00;;;;;;;;;;10315103;28;20033;-79
2024/01/08 17:01:55;;;;;;;537.92;360.13;;;;;;;;;;10314798;28;20030;-78
2024/01/08 17:06:55;;;;;;;562.15;422.40;;;;;;;;;;10333189;28;20109;-79
2024/01/08 17:11:56;;;;;;;545.93;393.20;;;;;;;;;;10315749;28;20464;-77
2024/01/08 17:16:56;;;;;;;541.50;342.75;;;;;;;;;;10319823;28;20030;-76
2024/01/08 17:21:56;;;;;;;544.50;353.08;;;;;;;;;;10309016;28;20026;-78
2024/01/08 17:26:56;;;;;;;575.15;447.13;;;;;;;;;;10307979;28;20030;-77
2024/01/08 17:31:56;;;;;;;552.42;381.38;;;;;;;;;;10308549;28;20477;-80
2024/01/08 17:36:57;;;;;;;551.67;359.52;;;;;;;;;;10307743;28;20116;-85
2024/01/08 17:41:57;;;;;;;560.33;383.20;;;;;;;;;;10326999;28;20468;-75
2024/01/08 17:46:58;;;;;;;562.27;351.03;;;;;;;;;;10305039;28;20544;-77
2024/01/08 17:51:59;;;;;;;577.42;409.00;;;;;;;;;;10325511;28;20148;-77
2024/01/08 17:57:00;;;;;;;575.28;379.73;;;;;;;;;;10337005;28;20041;-74
2024/01/08 18:02:00;;;;;;;580.90;384.35;;;;;;;;;;10356718;28;20420;-76
2024/01/08 18:07:01;;;;;;;585.47;387.00;;;;;;;;;;10343306;28;20018;-75
2024/01/08 18:12:02;;;;;;;581.00;377.90;;;;;;;;;;10373779;28;20018;-72
2024/01/08 18:17:03;;;;;;;582.63;371.77;;;;;;;;;;10366578;28;20022;-80
2024/01/08 18:22:07;;;;;;;582.67;373.95;;;;;;;;;;10355653;23;20358;-79
2024/01/08 18:27:08;;;;;;;586.63;372.92;;;;;;;;;;10351871;28;20033;-75
2024/01/08 18:32:09;;;;;;;584.08;361.83;;;;;;;;;;10336894;28;20090;-75
2024/01/08 18:37:09;;;;;;;569.37;331.37;;;;;;;;;;10322240;28;20014;-77
2024/01/08 18:42:09;;;;;;;586.08;329.73;;;;;;;;;;10337092;28;20052;-77
2024/01/08 18:47:09;;;;;;;602.72;422.55;;;;;;;;;;10336913;28;20030;-75
2024/01/08 18:52:10;;;;;;;600.70;390.85;;;;;;;;;;10315474;28;20029;-80
2024/01/08 18:57:10;;;;;;;596.22;378.67;;;;;;;;;;10312199;28;20498;-75
2024/01/08 19:02:11;;;;;;;599.13;360.23;;;;;;;;;;10308463;28;20118;-81
2024/01/08 19:07:12;;;;;;;613.40;371.65;;;;;;;;;;10308855;28;20077;-77
2024/01/08 19:12:14;;;;;;;613.00;357.17;;;;;;;;;;10309044;28;20102;-76
2024/01/08 19:17:15;;;;;;;622.35;399.52;;;;;;;;;;10307703;28;20022;-76
2024/01/08 19:22:15;;;;;;;611.75;379.67;;;;;;;;;;10309487;28;20061;-78
2024/01/08 19:27:15;;;;;;;628.45;393.02;;;;;;;;;;10307596;28;20019;-79
2024/01/08 19:32:16;;;;;;;593.30;343.20;;;;;;;;;;10308603;28;20019;-76
2024/01/08 19:37:16;;;;;;;603.38;364.27;;;;;;;;;;10305432;28;20033;-75
2024/01/08 19:42:17;;;;;;;606.35;351.75;;;;;;;;;;10316577;28;20038;-75
2024/01/08 19:47:17;;;;;;;605.50;336.77;;;;;;;;;;10316550;28;20022;-78
2024/01/08 19:52:17;;;;;;;599.95;303.00;;;;;;;;;;10317685;28;20026;-81
2024/01/08 19:57:18;;;;;;;606.17;342.75;;;;;;;;;;10294631;28;20037;-82
2024/01/08 20:02:18;;;;;;;605.17;341.65;;;;;;;;;;10300492;28;20114;-78
2024/01/08 20:07:18;;;;;;;628.10;349.27;;;;;;;;;;10307293;28;20065;-79
2024/01/08 20:12:19;;;;;;;619.50;330.90;;;;;;;;;;10311435;28;20065;-75
2024/01/08 20:17:19;;;;;;;609.78;343.63;;;;;;;;;;10309202;28;20034;-73
2024/01/08 20:22:20;;;;;;;607.28;334.80;;;;;;;;;;10314037;28;20230;-76
2024/01/08 20:27:21;;;;;;;621.90;351.13;;;;;;;;;;10334748;23;20477;-76
2024/01/08 20:32:21;;;;;;;622.08;331.48;;;;;;;;;;10324772;28;20041;-78
2024/01/08 20:37:23;;;;;;;615.17;319.77;;;;;;;;;;10320070;28;20034;-81
2024/01/08 20:42:23;;;;;;;620.50;324.83;;;;;;;;;;10314852;28;20165;-78
2024/01/08 20:47:23;;;;;;;615.35;336.10;;;;;;;;;;10305417;28;20030;-76
2024/01/08 20:52:24;;;;;;;615.67;350.70;;;;;;;;;;10303043;28;20117;-78
2024/01/08 20:57:24;;;;;;;612.90;342.98;;;;;;;;;;10310129;28;20023;-78
2024/01/08 21:02:25;;;;;;;604.97;291.95;;;;;;;;;;10313619;28;20029;-82
2024/01/08 21:07:26;;;;;;;609.72;327.25;;;;;;;;;;10310954;28;20218;-80
2024/01/08 21:12:26;;;;;;;608.20;319.23;;;;;;;;;;10330175;28;20026;-78
2024/01/08 21:17:26;;;;;;;608.47;337.83;;;;;;;;;;10327909;28;20032;-79
2024/01/08 21:22:26;;;;;;;602.30;323.88;;;;;;;;;;10334187;28;20525;-76
2024/01/08 21:27:27;;;;;;;611.40;335.33;;;;;;;;;;10331072;28;20145;-78
2024/01/08 21:32:27;;;;;;;606.08;321.58;;;;;;;;;;10318878;28;20061;-76
2024/01/08 21:37:31;;;;;;;611.15;331.73;;;;;;;;;;10310738;28;20030;-78
2024/01/08 21:42:31;;;;;;;615.35;362.63;;;;;;;;;;10310785;28;20018;-79
2024/01/08 21:47:31;;;;;;;706.25;346.20;;;;;;;;;;10309195;28;20477;-77
2024/01/08 21:52:33;;;;;;;705.92;365.85;;;;;;;;;;10308544;28;20371;-79
2024/01/08 21:57:33;;;;;;;712.35;361.55;;;;;;;;;;10325984;28;20030;-77
2024/01/08 22:02:35;;;;;;;720.05;404.83;;;;;;;;;;10310907;28;20020;-81
2024/01/08 22:07:35;;;;;;;709.03;353.70;;;;;;;;;;10309366;28;20464;-78
2024/01/08 22:12:40;;;;;;;720.28;372.42;;;;;;;;;;10309223;28;20030;-78
2024/01/08 22:17:40;;;;;;;710.15;366.63;;;;;;;;;;10309850;28;20096;-83
2024/01/08 22:22:42;;;;;;;698.20;318.67;;;;;;;;;;10292661;28;20080;-82
2024/01/08 22:27:42;;;;;;;706.50;354.05;;;;;;;;;;10308847;28;20297;-78
2024/01/08 22:32:42;;;;;;;695.60;312.02;;;;;;;;;;10308584;28;20022;-85
2024/01/08 22:37:42;;;;;;;707.92;358.17;;;;;;;;;;10307749;28;20571;-79
2024/01/08 22:42:43;;;;;;;708.00;351.53;;;;;;;;;;10308545;28;20027;-81
2024/01/08 22:47:43;;;;;;;701.30;365.77;;;;;;;;;;10308929;28;20026;-85
2024/01/08 22:52:43;;;;;;;710.60;375.92;;;;;;;;;;10308639;28;20056;-82
2024/01/08 22:57:43;;;;;;;664.17;338.15;;;;;;;;;;10306677;28;20037;-78
2024/01/08 23:02:43;;;;;;;706.65;362.10;;;;;;;;;;10318811;28;20030;-78
2024/01/08 23:07:44;;;;;;;709.15;367.17;;;;;;;;;;10309513;28;20123;-78
2024/01/08 23:12:44;;;;;;;706.40;363.25;;;;;;;;;;10323898;28;20034;-81
2024/01/08 23:17:45;;;;;;;715.63;378.98;;;;;;;;;;10308861;28;20026;-77
2024/01/08 23:22:45;;;;;;;713.92;396.58;;;;;;;;;;10323029;28;20025;-77
2024/01/08 23:27:46;;;;;;;710.88;380.98;;;;;;;;;;10307036;28;20061;-81
2024/01/08 23:32:46;;;;;;;713.25;375.88;;;;;;;;;;10309807;28;20035;-78
2024/01/08 23:37:46;;;;;;;703.65;349.90;;;;;;;;;;10306282;28;20120;-78
2024/01/08 23:42:54;;;;;;;699.28;321.73;;;;;;;;;;10307511;28;20037;-81
2024/01/08 23:47:54;;;;;;;708.60;345.08;;;;;;;;;;10321929;28;20568;-84
2024/01/08 23:52:54;;;;;;;696.67;327.85;;;;;;;;;;10306729;28;20111;-86
2024/01/08 23:57:54;;;;;;;700.78;332.27;;;;;;;;;;10307147;28;20121;-77
